Погода Альтаденана неделю

Калифорния, США

01 - 07 сентября
  • 01сентября
    Сегодня
    +16°
    +27°
    Ясно и безоблачно
    ВремяПогодаТемператураВлажностьДавлениеВетер, м/сВероятность осадков
    02:00Ясно и безоблачно+18°C63 %725 мм0.5 м/с2 %
    05:00Ясно и безоблачно+15°C41 %725 мм0.7 м/с2 %
    08:00Ясно и безоблачно+20°C27 %726 мм1.0 м/с2 %
    11:00Ясно и безоблачно+23°C39 %727 мм2.3 м/с2 %
    14:00Ясно и безоблачно+26°C28 %726 мм3.1 м/с2 %
    17:00Ясно и безоблачно+25°C30 %725 мм2.1 м/с2 %
    20:00Ясно и безоблачно+20°C49 %725 мм0.6 м/с2 %
    23:00Ясно и безоблачно+18°C58 %726 мм0.7 м/с2 %
  • 02сентября
    Среда
    +16°
    +27°
    Ясно и безоблачно
    ВремяПогодаТемператураВлажностьДавлениеВетер, м/сВероятность осадков
    02:00Ясно и безоблачно+17°C46 %726 мм0.8 м/с2 %
    05:00Ясно и безоблачно+17°C31 %725 мм0.7 м/с2 %
    08:00Ясно и безоблачно+19°C22 %726 мм0.6 м/с2 %
    11:00Ясно и безоблачно+22°C40 %727 мм2.1 м/с2 %
    14:00Ясно и безоблачно+26°C30 %726 мм2.6 м/с2 %
    17:00Ясно и безоблачно+26°C34 %725 мм2.4 м/с2 %
    20:00Ясно и безоблачно+20°C45 %725 мм0.3 м/с2 %
    23:00Ясно и безоблачно+19°C51 %725 мм0.6 м/с2 %
  • 03сентября
    Четверг
    +17°
    +27°
    Ясно и безоблачно
    ВремяПогодаТемператураВлажностьДавлениеВетер, м/сВероятность осадков
    02:00Ясно и безоблачно+18°C50 %725 мм0.6 м/с2 %
    05:00Ясно и безоблачно+17°C29 %724 мм0.3 м/с2 %
    08:00Ясно и безоблачно+19°C22 %725 мм1.0 м/с2 %
    11:00Ясно и безоблачно+23°C41 %725 мм2.1 м/с2 %
    14:00Ясно и безоблачно+26°C32 %724 мм3.1 м/с2 %
    17:00Ясно и безоблачно+25°C42 %723 мм2.7 м/с2 %
    20:00Ясно и безоблачно+20°C70 %723 мм1.0 м/с2 %
    23:00Ясно и безоблачно+18°C76 %724 мм0.9 м/с2 %
  • 04сентября
    Пятница
    +18°
    +27°
    Ясно и безоблачно
    ВремяПогодаТемператураВлажностьДавлениеВетер, м/сВероятность осадков
    02:00Ясно и безоблачно+17°C74 %724 мм0.6 м/с2 %
    05:00Ясно и безоблачно+17°C49 %724 мм0.7 м/с2 %
    08:00Ясно и безоблачно+19°C41 %724 мм0.2 м/с2 %
    11:00Ясно и безоблачно+22°C49 %725 мм2.2 м/с2 %
    14:00Ясно и безоблачно+26°C28 %724 мм3.1 м/с2 %
    17:00Ясно и безоблачно+26°C34 %724 мм2.6 м/с2 %
    20:00Ясно и безоблачно+21°C56 %724 мм0.7 м/с2 %
    23:00Ясно и безоблачно+19°C55 %724 мм0.9 м/с2 %
  • 05сентября
    Суббота
    +19°
    +29°
    Ясно и безоблачно
    ВремяПогодаТемператураВлажностьДавлениеВетер, м/сВероятность осадков
    02:00Ясно и безоблачно+19°C39 %724 мм0.8 м/с3 %
    05:00Ясно и безоблачно+19°C28 %724 мм0.5 м/с6 %
    08:00Ясно и безоблачно+22°C18 %725 мм0.5 м/с11 %
    11:00Ясно и безоблачно+25°C14 %726 мм1.9 м/с14 %
    14:00Ясно и безоблачно+28°C16 %725 мм3.7 м/с21 %
    17:00Ясно и безоблачно+28°C23 %724 мм2.7 м/с22 %
    20:00Ясно и безоблачно+22°C35 %724 мм0.4 м/с20 %
    23:00Ясно и безоблачно+21°C36 %725 мм0.8 м/с22 %
  • 06сентября
    Воскресенье
    +18°
    +27°
    Ясно и безоблачно
    ВремяПогодаТемператураВлажностьДавлениеВетер, м/сВероятность осадков
    05:00Практически безоблачно+20°C76 %724 мм0.4 м/с37 %
    11:00Ясно и безоблачно+25°C43 %725 мм2.1 м/с42 %
    17:00Ясно и безоблачно+27°C29 %724 мм2.8 м/с42 %
    23:00Ясно и безоблачно+21°C51 %724 мм1.4 м/с27 %
  • 07сентября
    Понедельник
    +17°
    +30°
    Ясно и безоблачно
    ВремяПогодаТемператураВлажностьДавлениеВетер, м/сВероятность осадков
    05:00Ясно и безоблачно+19°C57 %724 мм1.4 м/с22 %
    11:00Ясно и безоблачно+26°C30 %725 мм2.2 м/с26 %
    17:00Ясно и безоблачно+27°C29 %723 мм2.9 м/с31 %
    23:00Ясно и безоблачно+20°C55 %724 мм1.4 м/с20 %
Мы используем cookies
Соглашаюсь